Time;durP1;ratioP1;P1;durP2;ratioP2;P2;SDS_P1;SDS_P2;PMS_P1;PMS_P2;Temp;Humidity;BMP_temperature;BMP_pressure;BME280_temperature;BME280_humidity;BME280_pressure;Samples;Min_cycle;Max_cycle;Signal;HPM_P1;HPM_P2
2022/08/05 00:00:57;;;;;;;2.33;1.08;;;27.70;90.30;;;;;;5053505;28;20033;-45
2022/08/05 00:03:22;;;;;;;2.22;0.90;;;27.00;90.00;;;;;;5053152;28;20013;-45
2022/08/05 00:05:48;;;;;;;1.00;0.77;;;;;;;;;;5053184;28;20494;-44
2022/08/05 00:08:14;;;;;;;1.55;0.80;;;;;;;;;;5053098;28;20025;-44
2022/08/05 00:10:40;;;;;;;3.10;0.82;;;;;;;;;;5053319;28;20432;-44
2022/08/05 00:13:06;;;;;;;1.95;0.70;;;;;;;;;;5052971;28;20114;-44
2022/08/05 00:15:32;;;;;;;2.25;0.90;;;;;;;;;;5052926;28;20400;-44
2022/08/05 00:17:58;;;;;;;3.10;1.00;;;;;;;;;;5052972;28;20056;-44
2022/08/05 00:20:24;;;;;;;1.30;0.80;;;;;;;;;;5053095;28;20029;-44
2022/08/05 00:22:50;;;;;;;1.50;0.70;;;;;;;;;;5052858;28;20033;-43
2022/08/05 00:25:16;;;;;;;3.38;0.85;;;;;;;;;;5052757;28;20024;-45
2022/08/05 00:27:42;;;;;;;1.65;1.05;;;;;;;;;;5052735;28;20535;-45
2022/08/05 00:30:09;;;;;;;2.60;1.00;;;27.20;56.70;;;;;;5052677;28;20107;-44
2022/08/05 00:32:35;;;;;;;2.20;1.10;;;;;;;;;;5052680;28;20009;-45
2022/08/05 00:35:00;;;;;;;2.15;0.93;;;27.10;80.90;;;;;;5052696;28;20032;-44
2022/08/05 00:37:26;;;;;;;3.17;1.13;;;;;;;;;;5052462;28;20049;-44
2022/08/05 00:39:52;;;;;;;1.58;0.90;;;;;;;;;;5052483;28;20048;-44
2022/08/05 00:42:38;;;;;;;3.78;1.00;;;27.00;56.50;;;;;;5052745;28;20471;-45
2022/08/05 00:45:06;;;;;;;2.13;0.63;;;27.00;55.90;;;;;;5052538;28;20029;-45
2022/08/05 00:47:31;;;;;;;3.40;1.20;;;26.90;90.20;;;;;;5052463;28;20047;-44
2022/08/05 00:49:57;;;;;;;2.92;1.23;;;;;;;;;;5052431;28;20129;-49
2022/08/05 00:52:23;;;;;;;2.70;1.13;;;27.40;90.30;;;;;;5052378;28;20024;-51
2022/08/05 00:54:49;;;;;;;2.28;0.90;;;;;;;;;;5051525;28;20027;-49
2022/08/05 00:57:15;;;;;;;2.65;1.08;;;27.20;90.40;;;;;;5052255;28;20029;-44
2022/08/05 00:59:41;;;;;;;2.47;0.90;;;;;;;;;;5052467;28;20384;-47
2022/08/05 01:02:06;;;;;;;3.00;0.80;;;27.30;90.30;;;;;;5052411;28;20021;-51
2022/08/05 01:04:32;;;;;;;1.02;0.85;;;;;;;;;;5052190;28;20421;-47
2022/08/05 01:06:58;;;;;;;2.47;0.95;;;;;;;;;;5052138;28;20024;-46
2022/08/05 01:09:24;;;;;;;2.65;0.85;;;;;;;;;;5052136;28;20472;-45
2022/08/05 01:11:53;;;;;;;3.90;0.95;;;27.10;55.90;;;;;;5052129;28;20112;-47
2022/08/05 01:14:43;;;;;;;2.58;0.88;;;27.40;90.40;;;;;;5052135;28;20056;-47
2022/08/05 01:17:20;;;;;;;;;;;27.00;53.10;;;;;;5052602;28;20029;-48
2022/08/05 01:19:52;;;;;;;2.53;1.00;;;26.90;90.40;;;;;;5052374;28;19963;-45
2022/08/05 01:22:45;;;;;;;1.42;0.77;;;27.00;52.60;;;;;;5052042;28;20032;-44
2022/08/05 01:25:46;;;;;;;1.83;1.10;;;27.00;90.20;;;;;;5050781;28;20518;-44
2022/08/05 01:28:23;;;;;;;3.58;0.90;;;27.20;90.30;;;;;;5039797;28;20090;-44
2022/08/05 01:31:07;;;;;;;2.15;1.13;;;26.80;90.30;;;;;;5052050;28;20025;-45
2022/08/05 01:33:38;;;;;;;2.42;1.00;;;26.80;66.90;;;;;;5052100;28;20028;-43
2022/08/05 01:36:09;;;;;;;1.73;1.13;;;27.00;56.00;;;;;;5051776;28;20021;-45
2022/08/05 01:38:36;;;;;;;2.35;0.80;;;27.30;90.40;;;;;;5052090;28;20029;-44
2022/08/05 01:41:04;;;;;;;3.40;1.00;;;27.00;56.00;;;;;;5051830;28;20033;-44
2022/08/05 01:43:31;;;;;;;2.58;1.08;;;27.00;56.10;;;;;;5051780;28;20014;-44
2022/08/05 01:45:58;;;;;;;1.67;0.73;;;26.90;90.20;;;;;;5051850;28;20372;-44
2022/08/05 01:48:30;;;;;;;1.90;1.00;;;27.30;90.40;;;;;;5051835;28;20526;-45
2022/08/05 01:50:56;;;;;;;1.83;0.90;;;27.10;56.00;;;;;;5051816;28;20071;-45
2022/08/05 01:53:24;;;;;;;1.55;0.98;;;27.10;56.10;;;;;;5051728;28;20014;-44
2022/08/05 01:55:51;;;;;;;2.20;1.23;;;26.90;90.20;;;;;;5051727;28;20017;-44
2022/08/05 01:58:18;;;;;;;2.38;1.00;;;27.10;90.40;;;;;;5051688;28;20033;-44
2022/08/05 02:00:49;;;;;;;3.40;0.85;;;27.00;55.90;;;;;;5051613;28;20062;-45
2022/08/05 02:03:23;;;;;;;1.52;0.95;;;27.00;72.90;;;;;;5051653;28;20020;-45
2022/08/05 02:05:50;;;;;;;4.18;1.10;;;27.30;90.30;;;;;;5054108;28;20037;-44
2022/08/05 02:08:16;;;;;;;2.28;1.15;;;27.30;90.40;;;;;;5055421;28;20406;-45
2022/08/05 02:10:47;;;;;;;1.52;1.00;;;27.30;90.30;;;;;;5055420;28;20099;-44
2022/08/05 02:13:17;;;;;;;1.48;0.93;;;27.00;90.40;;;;;;5055325;28;20036;-46
2022/08/05 02:15:52;;;;;;;1.40;0.60;;;27.40;67.90;;;;;;5055284;28;20402;-45
2022/08/05 02:18:39;;;;;;;1.85;0.95;;;27.00;55.90;;;;;;5055206;28;20341;-45
2022/08/05 02:21:11;;;;;;;2.40;1.08;;;26.50;90.20;;;;;;5051126;28;20045;-44
2022/08/05 02:23:40;;;;;;;1.42;0.90;;;27.00;56.10;;;;;;5055069;28;20017;-44
2022/08/05 02:26:09;;;;;;;2.08;0.82;;;27.20;90.50;;;;;;5055057;28;20503;-45
2022/08/05 02:28:39;;;;;;;1.73;0.63;;;27.40;82.50;;;;;;5055080;28;20025;-46
2022/08/05 02:31:07;;;;;;;;;;;26.90;56.80;;;;;;5055424;28;20021;-44
2022/08/05 02:33:47;;;;;;;2.42;1.10;;;27.00;56.40;;;;;;5054906;28;19947;-45
2022/08/05 02:36:16;;;;;;;2.45;1.20;;;27.00;56.30;;;;;;5054735;28;20498;-45
2022/08/05 02:38:46;;;;;;;1.73;0.93;;;27.00;56.20;;;;;;5054841;28;20056;-44
2022/08/05 02:41:13;;;;;;;2.72;1.00;;;26.90;90.30;;;;;;5054744;28;20040;-45
2022/08/05 02:43:40;;;;;;;1.33;0.82;;;27.10;90.40;;;;;;5055017;28;20360;-44
2022/08/05 02:46:07;;;;;;;1.52;0.80;;;;;;;;;;5054792;28;20387;-44
2022/08/05 02:48:34;;;;;;;1.85;0.95;;;26.60;90.20;;;;;;5054710;28;20049;-45
2022/08/05 02:51:01;;;;;;;1.63;0.98;;;26.90;90.40;;;;;;5054622;28;20032;-45
2022/08/05 02:53:30;;;;;;;2.67;0.90;;;27.00;90.00;;;;;;5054513;28;20024;-45
2022/08/05 02:55:56;;;;;;;1.90;0.85;;;;;;;;;;5054713;28;20395;-44
2022/08/05 02:58:24;;;;;;;1.75;0.82;;;26.90;56.10;;;;;;5054411;28;20479;-45
2022/08/05 03:00:52;;;;;;;1.50;0.98;;;26.30;55.90;;;;;;5054355;28;20114;-46
2022/08/05 03:03:19;;;;;;;1.70;0.90;;;26.90;54.40;;;;;;5054319;28;20021;-44
2022/08/05 03:05:46;;;;;;;2.45;0.93;;;26.70;88.10;;;;;;5054305;28;20025;-45
2022/08/05 03:08:13;;;;;;;2.65;1.10;;;26.90;55.90;;;;;;5054332;28;20025;-44
2022/08/05 03:10:42;;;;;;;2.58;0.95;;;26.90;56.10;;;;;;5054241;28;20021;-45
2022/08/05 03:13:17;;;;;;;2.25;0.75;;;26.90;52.60;;;;;;5054213;28;20059;-46
2022/08/05 03:15:47;;;;;;;1.52;0.80;;;27.30;79.80;;;;;;5054047;28;20033;-46
2022/08/05 03:18:13;;;;;;;1.70;0.75;;;26.90;75.60;;;;;;5053488;28;20550;-47
2022/08/05 03:20:39;;;;;;;2.40;1.20;;;26.60;90.30;;;;;;5054028;28;20037;-45
2022/08/05 03:23:08;;;;;;;1.00;0.68;;;27.20;90.60;;;;;;5054038;28;20025;-44
2022/08/05 03:25:35;;;;;;;1.17;0.82;;;26.60;90.40;;;;;;5054028;28;20025;-44
2022/08/05 03:28:02;;;;;;;2.65;0.90;;;26.90;54.60;;;;;;5053926;28;20032;-45
2022/08/05 03:30:31;;;;;;;2.38;1.00;;;27.20;90.70;;;;;;5053923;28;20533;-44
2022/08/05 03:33:01;;;;;;;2.47;1.00;;;26.50;73.50;;;;;;5054070;28;20425;-45
2022/08/05 03:35:28;;;;;;;1.42;0.70;;;26.40;57.80;;;;;;5053795;28;20021;-46
2022/08/05 03:37:57;;;;;;;2.47;0.95;;;27.10;90.50;;;;;;5053618;28;20148;-47
2022/08/05 03:40:23;;;;;;;1.42;0.75;;;27.10;90.50;;;;;;5053764;28;20112;-46
2022/08/05 03:42:49;;;;;;;2.47;1.33;;;26.40;90.20;;;;;;5053674;28;20155;-46
2022/08/05 03:45:14;;;;;;;1.70;0.93;;;27.30;76.40;;;;;;5053869;28;20032;-44
2022/08/05 03:47:40;;;;;;;2.42;0.73;;;;;;;;;;5053565;28;20388;-45
2022/08/05 03:50:06;;;;;;;1.17;0.90;;;27.80;54.90;;;;;;5053386;28;20035;-43
2022/08/05 03:53:01;;;;;;;1.50;0.80;;;27.10;53.00;;;;;;5053659;28;20091;-45
2022/08/05 03:55:34;;;;;;;1.30;0.77;;;26.50;90.30;;;;;;5053008;28;20036;-44
2022/08/05 03:58:00;;;;;;;1.75;0.73;;;26.40;90.20;;;;;;5053426;28;20104;-44
2022/08/05 04:00:30;;;;;;;1.58;0.80;;;26.90;58.40;;;;;;5053339;28;20029;-44
2022/08/05 04:02:58;;;;;;;2.72;0.85;;;26.30;90.20;;;;;;5053447;28;20036;-45
2022/08/05 04:05:28;;;;;;;1.20;0.60;;;26.80;56.20;;;;;;5053225;28;20013;-45
2022/08/05 04:07:54;;;;;;;1.88;0.63;;;26.60;90.30;;;;;;5053507;28;20562;-44
2022/08/05 04:10:20;;;;;;;3.22;1.08;;;27.10;90.50;;;;;;5053108;28;20134;-46
2022/08/05 04:12:46;;;;;;;2.08;0.90;;;26.40;90.20;;;;;;5053050;28;20024;-45
2022/08/05 04:15:12;;;;;;;1.23;0.60;;;;;;;;;;5052984;28;20023;-46
2022/08/05 04:17:38;;;;;;;2.63;0.98;;;26.60;86.70;;;;;;5053051;28;20039;-46
2022/08/05 04:20:04;;;;;;;1.30;0.77;;;27.00;90.30;;;;;;5052923;28;20033;-44
2022/08/05 04:22:30;;;;;;;0.90;0.60;;;;;;;;;;5053116;28;20029;-45
2022/08/05 04:24:55;;;;;;;1.58;0.65;;;26.50;90.30;;;;;;5053057;28;20051;-45
2022/08/05 04:27:22;;;;;;;1.35;0.80;;;27.00;90.50;;;;;;5052657;28;20017;-46
2022/08/05 04:29:48;;;;;;;2.95;0.90;;;27.10;90.40;;;;;;5052687;28;20032;-45
2022/08/05 04:32:13;;;;;;;1.67;0.70;;;26.50;90.20;;;;;;5052669;28;20025;-46
2022/08/05 04:34:39;;;;;;;2.20;0.80;;;27.10;90.50;;;;;;5052965;28;20056;-48
2022/08/05 04:37:05;;;;;;;1.25;0.65;;;;;;;;;;5051143;28;20132;-47
2022/08/05 04:39:32;;;;;;;2.20;0.70;;;27.10;90.30;;;;;;5052726;28;20036;-48
2022/08/05 04:41:57;;;;;;;2.63;0.77;;;26.80;90.10;;;;;;5052817;28;20021;-47
2022/08/05 04:44:23;;;;;;;0.90;0.50;;;26.50;90.20;;;;;;5052402;28;20036;-45
2022/08/05 04:46:49;;;;;;;1.75;0.80;;;26.40;90.00;;;;;;5052513;28;20055;-47
2022/08/05 04:49:14;;;;;;;1.33;0.50;;;;;;;;;;5052393;28;20035;-45
2022/08/05 04:51:41;;;;;;;1.70;0.85;;;;;;;;;;5052441;28;20021;-45
2022/08/05 04:54:07;;;;;;;1.50;0.73;;;;;;;;;;5052365;28;20025;-45
2022/08/05 04:56:32;;;;;;;1.30;0.60;;;;;;;;;;5052392;28;20104;-44
2022/08/05 04:58:59;;;;;;;1.35;0.70;;;;;;;;;;5052216;28;20487;-50
2022/08/05 05:01:24;;;;;;;1.55;0.77;;;;;;;;;;5052201;28;20406;-46
2022/08/05 05:03:50;;;;;;;2.45;0.70;;;;;;;;;;5052186;28;20051;-47
2022/08/05 05:06:18;;;;;;;0.82;0.52;;;;;;;;;;5052453;28;20403;-45
2022/08/05 05:08:44;;;;;;;2.13;0.68;;;27.00;90.40;;;;;;5052462;28;20508;-47
2022/08/05 05:11:10;;;;;;;1.98;0.80;;;;;;;;;;5052148;28;20025;-50
2022/08/05 05:13:35;;;;;;;1.02;0.47;;;26.50;90.20;;;;;;5052100;28;20064;-48
2022/08/05 05:16:01;;;;;;;0.82;0.60;;;26.90;90.40;;;;;;5052671;28;20079;-44
2022/08/05 05:18:27;;;;;;;0.50;0.50;;;;;;;;;;5052059;28;20073;-45
2022/08/05 05:20:53;;;;;;;2.78;0.75;;;;;;;;;;5051954;28;20033;-44
2022/08/05 05:23:18;;;;;;;1.60;0.52;;;26.40;70.20;;;;;;5051997;28;20021;-45
2022/08/05 05:25:44;;;;;;;1.70;0.50;;;;;;;;;;5052041;28;20032;-44
2022/08/05 05:28:11;;;;;;;1.42;0.73;;;;;;;;;;5051962;28;20483;-49
2022/08/05 05:30:38;;;;;;;0.70;0.60;;;26.70;56.00;;;;;;5051978;28;20025;-48
2022/08/05 05:33:05;;;;;;;1.17;0.47;;;27.10;90.40;;;;;;5051836;28;20027;-48
2022/08/05 05:35:32;;;;;;;0.80;0.40;;;26.50;90.20;;;;;;5052127;28;20039;-49
2022/08/05 05:37:59;;;;;;;1.42;0.60;;;26.60;55.00;;;;;;5051615;28;20116;-46
2022/08/05 05:40:26;;;;;;;1.35;0.52;;;26.50;90.20;;;;;;5053674;28;20091;-49
2022/08/05 05:42:52;;;;;;;0.85;0.50;;;26.50;90.30;;;;;;5055892;28;20487;-49
2022/08/05 05:45:19;;;;;;;1.50;0.60;;;26.80;56.10;;;;;;5055755;28;20048;-45
2022/08/05 05:47:45;;;;;;;1.23;0.60;;;;;;;;;;5056005;28;20420;-47
2022/08/05 05:50:14;;;;;;;1.25;0.60;;;26.20;57.10;;;;;;5055986;28;20056;-50
2022/08/05 05:52:39;;;;;;;1.00;0.43;;;27.00;90.40;;;;;;5055885;28;20442;-47
2022/08/05 05:55:10;;;;;;;1.88;0.60;;;26.60;90.30;;;;;;5055596;28;20025;-50
2022/08/05 05:57:36;;;;;;;2.38;0.60;;;;;;;;;;5055633;28;20025;-47
2022/08/05 06:00:04;;;;;;;1.92;0.70;;;26.60;55.90;;;;;;5055409;28;20123;-48
2022/08/05 06:02:29;;;;;;;1.33;0.50;;;26.30;90.20;;;;;;5055360;28;20052;-49
2022/08/05 06:04:55;;;;;;;1.33;0.60;;;26.50;90.20;;;;;;5055419;28;20387;-48
2022/08/05 06:07:21;;;;;;;3.28;0.63;;;;;;;;;;5055427;28;20101;-47
2022/08/05 06:09:47;;;;;;;3.00;0.52;;;26.40;90.30;;;;;;5055336;28;20382;-45
2022/08/05 06:12:12;;;;;;;1.65;0.70;;;;;;;;;;5055297;28;20162;-45
2022/08/05 06:14:38;;;;;;;3.80;0.52;;;;;;;;;;5055291;28;20040;-44
2022/08/05 06:17:04;;;;;;;1.58;0.40;;;;;;;;;;5055235;28;20036;-45
2022/08/05 06:19:30;;;;;;;2.70;0.65;;;;;;;;;;5055047;28;20136;-44
2022/08/05 06:21:56;;;;;;;2.35;0.80;;;;;;;;;;5055112;28;20023;-45
2022/08/05 06:24:22;;;;;;;2.38;0.77;;;;;;;;;;5055051;28;20029;-48
2022/08/05 06:26:48;;;;;;;0.95;0.40;;;;;;;;;;5055085;28;20115;-45
2022/08/05 06:29:14;;;;;;;6.53;0.75;;;;;;;;;;5054959;28;20024;-45
2022/08/05 06:31:40;;;;;;;3.35;0.50;;;;;;;;;;5054879;28;20423;-49
2022/08/05 06:34:06;;;;;;;2.00;0.63;;;;;;;;;;5054777;28;20033;-45
2022/08/05 06:36:32;;;;;;;0.85;0.47;;;;;;;;;;5054587;28;20128;-45
2022/08/05 06:38:58;;;;;;;1.58;0.68;;;26.40;73.10;;;;;;5054765;28;20399;-45
2022/08/05 06:41:24;;;;;;;4.32;0.80;;;;;;;;;;5054581;28;20091;-47
2022/08/05 06:43:50;;;;;;;1.38;0.85;;;26.60;90.80;;;;;;5054570;28;20437;-45
2022/08/05 06:46:15;;;;;;;1.70;0.68;;;26.20;90.70;;;;;;5054689;28;20025;-45
2022/08/05 06:48:41;;;;;;;3.63;0.60;;;26.50;90.70;;;;;;5054526;28;20033;-45
2022/08/05 06:51:07;;;;;;;1.92;0.68;;;26.40;78.80;;;;;;5053539;28;20047;-44
2022/08/05 06:53:34;;;;;;;5.53;0.60;;;26.30;66.70;;;;;;5054353;28;20021;-45
2022/08/05 06:56:02;;;;;;;3.92;0.70;;;26.40;90.70;;;;;;5054479;28;20422;-46
2022/08/05 06:58:28;;;;;;;2.13;0.68;;;;;;;;;;5053621;28;20025;-44
2022/08/05 07:00:54;;;;;;;4.20;0.50;;;;;;;;;;5053931;28;20441;-44
2022/08/05 07:03:19;;;;;;;4.32;0.70;;;26.70;90.80;;;;;;5054318;28;20017;-48
2022/08/05 07:05:45;;;;;;;0.95;0.40;;;26.30;90.60;;;;;;5054232;28;20029;-47
2022/08/05 07:08:10;;;;;;;2.97;0.70;;;26.40;78.00;;;;;;5054335;28;20025;-45
2022/08/05 07:10:36;;;;;;;2.83;0.52;;;;;;;;;;5052920;28;20029;-45
2022/08/05 07:18:31;;;;;;;1.38;0.70;;;;;;;;;;5054333;28;20060;-45
2022/08/05 07:20:57;;;;;;;1.70;0.50;;;26.30;90.40;;;;;;5053954;28;20068;-46
2022/08/05 07:23:23;;;;;;;2.83;0.45;;;;;;;;;;5054022;28;20028;-45
2022/08/05 07:25:49;;;;;;;1.58;0.60;;;;;;;;;;5054096;28;20025;-45
2022/08/05 07:28:15;;;;;;;5.45;0.60;;;;;;;;;;5053836;28;20387;-46
2022/08/05 07:30:41;;;;;;;5.25;0.43;;;26.60;84.80;;;;;;5053630;28;20058;-45
2022/08/05 07:33:10;;;;;;;1.20;0.40;;;26.70;56.40;;;;;;5053688;28;20025;-44
2022/08/05 07:35:39;;;;;;;5.30;0.70;;;27.20;53.20;;;;;;5054023;28;20029;-46
2022/08/05 07:38:05;;;;;;;3.03;0.63;;;26.80;90.60;;;;;;5053497;28;20131;-47
2022/08/05 07:40:31;;;;;;;1.90;0.47;;;26.60;90.50;;;;;;5053622;28;20170;-47
2022/08/05 07:42:57;;;;;;;0.50;0.28;;;26.60;85.70;;;;;;5053547;28;20025;-46
2022/08/05 07:45:22;;;;;;;0.55;0.47;;;26.40;57.80;;;;;;5053511;28;20075;-49
2022/08/05 07:47:48;;;;;;;1.52;0.40;;;;;;;;;;5053740;28;20017;-46
2022/08/05 07:50:15;;;;;;;1.70;0.55;;;;;;;;;;5053564;28;20154;-47
2022/08/05 07:52:42;;;;;;;0.77;0.40;;;26.70;56.50;;;;;;5053246;28;20036;-46
2022/08/05 07:55:08;;;;;;;1.85;0.32;;;26.50;90.50;;;;;;5053252;28;20032;-45
2022/08/05 07:57:35;;;;;;;0.75;0.38;;;26.60;56.40;;;;;;5053228;28;20456;-46
2022/08/05 08:00:01;;;;;;;0.88;0.40;;;26.50;77.60;;;;;;5053104;28;20112;-45
2022/08/05 08:02:28;;;;;;;2.58;0.80;;;26.70;56.60;;;;;;5052626;28;20100;-50
2022/08/05 08:04:54;;;;;;;1.55;0.30;;;;;;;;;;5053007;28;20032;-46
2022/08/05 08:07:20;;;;;;;1.40;0.47;;;26.40;90.50;;;;;;5053263;28;20035;-44
2022/08/05 08:09:46;;;;;;;0.90;0.50;;;26.40;90.50;;;;;;5053208;28;20108;-47
2022/08/05 08:12:12;;;;;;;2.30;0.20;;;26.40;90.60;;;;;;5052905;28;20547;-46
2022/08/05 08:14:38;;;;;;;0.43;0.30;;;26.40;90.60;;;;;;5052870;28;20183;-45
2022/08/05 08:17:09;;;;;;;2.50;0.40;;;;;;;;;;5052980;28;20025;-45
2022/08/05 08:19:44;;;;;;;1.33;0.40;;;27.00;90.60;;;;;;5053059;28;20029;-46
2022/08/05 08:22:10;;;;;;;1.27;0.28;;;;;;;;;;5053041;28;20391;-47
2022/08/05 08:24:36;;;;;;;1.92;0.40;;;26.60;90.50;;;;;;5052781;28;20060;-48
2022/08/05 08:27:02;;;;;;;2.50;0.75;;;27.00;90.50;;;;;;5051008;28;20071;-45
2022/08/05 08:29:28;;;;;;;1.98;0.30;;;;;;;;;;5052192;28;20511;-45
2022/08/05 08:31:54;;;;;;;0.60;0.50;;;;;;;;;;5051254;28;20479;-45
2022/08/05 08:34:22;;;;;;;2.30;0.70;;;26.80;55.90;;;;;;5052623;28;20040;-46
2022/08/05 08:36:49;;;;;;;0.85;0.40;;;;;;;;;;5052358;28;20443;-46
2022/08/05 08:39:16;;;;;;;0.65;0.40;;;27.00;56.80;;;;;;5052379;28;20036;-45
2022/08/05 08:41:46;;;;;;;0.52;0.30;;;26.90;55.10;;;;;;5052408;28;20537;-45
2022/08/05 08:44:20;;;;;;;2.47;0.50;;;26.70;72.80;;;;;;5052715;28;20069;-48
2022/08/05 08:46:47;;;;;;;0.80;0.50;;;27.20;90.00;;;;;;5052375;28;20033;-45
2022/08/05 08:49:19;;;;;;;1.33;0.20;;;26.80;89.30;;;;;;5052427;28;20044;-45
2022/08/05 08:51:57;;;;;;;1.08;0.40;;;27.30;68.60;;;;;;5052321;28;20033;-45
2022/08/05 08:54:23;;;;;;;0.88;0.30;;;27.30;67.30;;;;;;5052390;28;20442;-46
2022/08/05 08:56:49;;;;;;;1.10;0.30;;;27.20;89.10;;;;;;5052622;28;20021;-46
2022/08/05 08:59:17;;;;;;;1.65;0.60;;;27.00;54.00;;;;;;5052409;28;20017;-47
2022/08/05 09:01:44;;;;;;;0.85;0.30;;;27.30;88.90;;;;;;5052270;28;20028;-45
2022/08/05 09:04:10;;;;;;;1.85;0.50;;;;;;;;;;5052166;28;20037;-45
2022/08/05 09:06:36;;;;;;;0.40;0.40;;;;;;;;;;5052170;28;20156;-45
2022/08/05 09:09:03;;;;;;;0.52;0.32;;;;;;;;;;5050866;28;20116;-45
2022/08/05 09:11:31;;;;;;;1.65;0.40;;;27.00;52.90;;;;;;5052119;28;20033;-46
2022/08/05 09:13:57;;;;;;;0.75;0.50;;;;;;;;;;5051593;28;20021;-50
2022/08/05 09:16:23;;;;;;;0.45;0.20;;;;;;;;;;5051903;28;20033;-49
2022/08/05 09:18:49;;;;;;;1.85;0.50;;;27.00;82.30;;;;;;5051868;28;20048;-46
2022/08/05 09:21:15;;;;;;;1.15;0.30;;;27.10;88.40;;;;;;5051702;28;20060;-47
2022/08/05 09:23:44;;;;;;;0.57;0.30;;;27.20;69.30;;;;;;5051732;28;20113;-49
2022/08/05 09:26:12;;;;;;;1.23;0.38;;;27.30;88.80;;;;;;5051764;28;20150;-47
2022/08/05 09:28:39;;;;;;;1.60;0.40;;;27.00;53.80;;;;;;5051900;28;20028;-46
2022/08/05 09:31:05;;;;;;;0.65;0.43;;;;;;;;;;5052180;28;20033;-47
2022/08/05 09:33:45;;;;;;;1.85;0.20;;;27.40;88.30;;;;;;5051924;28;20051;-48
2022/08/05 09:36:10;;;;;;;0.60;0.40;;;;;;;;;;5051997;28;20041;-46
2022/08/05 09:38:36;;;;;;;1.13;0.40;;;;;;;;;;5051871;28;20095;-47
2022/08/05 09:41:08;;;;;;;0.38;0.30;;;27.00;53.40;;;;;;5051774;28;20123;-46
2022/08/05 09:43:36;;;;;;;1.20;0.40;;;27.00;53.40;;;;;;5052082;28;20082;-48
2022/08/05 09:46:05;;;;;;;0.30;0.20;;;27.20;88.10;;;;;;5051731;28;20360;-46
2022/08/05 09:48:33;;;;;;;0.77;0.20;;;27.40;88.00;;;;;;5051626;28;20051;-48
2022/08/05 09:51:05;;;;;;;2.55;0.40;;;27.00;53.50;;;;;;5050467;28;20025;-46
2022/08/05 09:53:48;;;;;;;1.25;0.40;;;27.00;53.30;;;;;;5051981;28;20071;-48
2022/08/05 09:56:22;;;;;;;1.05;0.32;;;26.60;87.80;;;;;;5051529;28;20029;-47
2022/08/05 09:58:59;;;;;;;1.17;0.40;;;27.00;49.80;;;;;;5051489;28;20043;-48
2022/08/05 10:01:25;;;;;;;1.20;0.30;;;;;;;;;;5051203;28;20033;-46
2022/08/05 10:04:05;;;;;;;2.92;0.40;;;27.30;50.20;;;;;;5051362;28;20033;-45
2022/08/05 10:06:31;;;;;;;1.85;0.40;;;27.00;52.50;;;;;;5051485;28;20443;-47
2022/08/05 10:09:14;;;;;;;2.20;0.40;;;27.00;49.50;;;;;;5051449;28;20021;-48
2022/08/05 10:11:40;;;;;;;3.80;0.50;;;27.10;87.80;;;;;;5051734;28;20113;-50
2022/08/05 10:14:30;;;;;;;2.25;0.30;;;26.90;48.80;;;;;;5051495;28;20037;-47
2022/08/05 10:17:10;;;;;;;1.55;0.30;;;27.40;87.10;;;;;;5051538;28;20035;-47
2022/08/05 10:19:37;;;;;;;2.65;0.32;;;;;;;;;;5051182;28;20539;-48
2022/08/05 10:22:03;;;;;;;0.57;0.20;;;27.30;58.90;;;;;;5051503;28;20033;-48
2022/08/05 10:24:31;;;;;;;3.70;0.60;;;26.80;49.60;;;;;;5051571;28;20025;-46
2022/08/05 10:26:58;;;;;;;1.23;0.40;;;;;;;;;;5054020;28;20028;-47
2022/08/05 10:29:25;;;;;;;1.42;0.35;;;;;;;;;;5055028;28;20025;-50
2022/08/05 10:31:51;;;;;;;4.47;0.32;;;26.60;83.50;;;;;;5053795;28;20025;-49
2022/08/05 10:34:17;;;;;;;1.08;0.32;;;27.20;75.90;;;;;;5055224;28;20075;-50
2022/08/05 10:36:43;;;;;;;1.20;0.20;;;;;;;;;;5054758;28;20080;-48
2022/08/05 10:39:23;;;;;;;1.35;0.40;;;26.90;44.90;;;;;;5054652;28;20100;-48
2022/08/05 10:42:01;;;;;;;4.03;0.30;;;26.80;83.00;;;;;;5054842;28;20025;-48
2022/08/05 10:44:28;;;;;;;2.35;0.35;;;26.30;67.00;;;;;;5054756;28;20075;-52
2022/08/05 10:46:55;;;;;;;1.98;0.30;;;26.60;82.90;;;;;;5054904;28;20087;-52
2022/08/05 10:49:24;;;;;;;1.30;0.40;;;26.60;82.70;;;;;;5054613;28;20016;-50
2022/08/05 10:51:59;;;;;;;1.90;0.30;;;26.90;44.70;;;;;;5054481;28;20055;-48
2022/08/05 10:55:00;;;;;;;0.43;0.20;;;26.90;47.90;;;;;;5054704;28;20025;-50
2022/08/05 10:57:27;;;;;;;3.03;0.20;;;26.60;82.30;;;;;;5054477;28;20025;-49
2022/08/05 11:00:15;;;;;;;1.08;0.30;;;26.50;43.90;;;;;;5054271;28;20061;-47
2022/08/05 11:06:12;;;;;;;1.55;0.20;;;27.10;48.10;;;;;;5054700;28;20067;-49
2022/08/05 11:08:39;;;;;;;1.77;0.20;;;;;;;;;;5054364;28;20021;-48
2022/08/05 11:11:31;;;;;;;2.35;0.50;;;27.00;44.40;;;;;;5053065;28;20032;-48
2022/08/05 11:13:57;;;;;;;2.10;0.30;;;;;;;;;;5054216;28;20484;-49
2022/08/05 11:16:23;;;;;;;1.17;0.45;;;;;;;;;;5054155;28;20052;-49
2022/08/05 11:19:25;;;;;;;0.50;0.10;;;27.10;82.70;;;;;;5054116;28;20025;-47
2022/08/05 11:21:52;;;;;;;4.38;0.25;;;26.70;65.80;;;;;;5054327;28;20037;-48
2022/08/05 11:24:19;;;;;;;1.65;0.40;;;;;;;;;;5054051;28;20029;-49
2022/08/05 11:26:45;;;;;;;0.45;0.20;;;27.00;82.60;;;;;;5054037;28;20087;-50
2022/08/05 11:29:35;;;;;;;2.22;0.15;;;27.30;60.60;;;;;;5054127;28;20045;-48
2022/08/05 11:32:24;;;;;;;1.25;0.40;;;27.20;44.60;;;;;;5054137;28;20044;-47
2022/08/05 11:34:49;;;;;;;1.40;0.20;;;27.50;82.10;;;;;;5054014;28;20021;-48
2022/08/05 11:37:38;;;;;;;3.38;0.20;;;27.40;82.80;;;;;;5051577;28;20406;-52
2022/08/05 11:40:05;;;;;;;1.48;0.20;;;27.40;82.90;;;;;;5053550;28;20044;-48
2022/08/05 11:42:33;;;;;;;1.48;0.20;;;27.20;44.50;;;;;;5053598;28;20415;-48
2022/08/05 11:45:04;;;;;;;1.00;0.20;;;26.90;82.30;;;;;;5053531;28;20502;-47
2022/08/05 11:47:34;;;;;;;1.85;0.20;;;27.20;48.00;;;;;;5053832;28;20146;-47
2022/08/05 11:50:00;;;;;;;2.70;0.43;;;27.60;82.70;;;;;;5053566;28;20021;-50
2022/08/05 11:52:27;;;;;;;1.70;0.30;;;27.20;47.10;;;;;;5053452;28;20434;-46
2022/08/05 11:54:53;;;;;;;1.35;0.20;;;27.10;78.90;;;;;;5053363;28;20064;-48
2022/08/05 12:03:20;;;;;;;0.32;0.30;;;27.30;82.60;;;;;;5060019;28;20504;-46
2022/08/05 12:05:46;;;;;;;1.08;0.20;;;27.40;83.00;;;;;;5053317;28;20394;-48
2022/08/05 12:08:12;;;;;;;1.67;0.38;;;;;;;;;;5053235;28;20096;-47
2022/08/05 12:10:38;;;;;;;2.35;0.25;;;27.30;82.80;;;;;;5053516;28;20379;-48
2022/08/05 12:13:04;;;;;;;1.17;0.20;;;;;;;;;;5053121;28;20479;-47
2022/08/05 12:15:33;;;;;;;9.25;0.28;;;;;;;;;;5053262;28;20039;-47
2022/08/05 12:17:59;;;;;;;0.90;0.20;;;27.60;82.90;;;;;;5053074;28;20029;-48
2022/08/05 12:20:27;;;;;;;0.65;0.25;;;27.10;53.80;;;;;;5052908;28;20037;-48
2022/08/05 12:23:10;;;;;;;1.55;0.30;;;27.00;82.40;;;;;;5052942;28;20029;-48
2022/08/05 12:25:52;;;;;;;0.77;0.30;;;27.60;83.20;;;;;;5053042;28;20052;-48
2022/08/05 12:28:32;;;;;;;0.60;0.20;;;27.30;44.40;;;;;;5052683;28;20033;-52
2022/08/05 12:30:58;;;;;;;;;;;27.40;48.90;;;;;;5053157;28;20083;-53
2022/08/05 12:33:24;;;;;;;1.10;0.30;;;27.00;82.50;;;;;;5052652;28;19905;-53
2022/08/05 12:35:50;;;;;;;3.60;0.40;;;;;;;;;;5052608;28;20045;-50
2022/08/05 12:38:16;;;;;;;1.58;0.20;;;;;;;;;;5052573;28;20056;-52
2022/08/05 12:40:42;;;;;;;1.75;0.30;;;;;;;;;;5052456;28;20458;-50
2022/08/05 12:43:08;;;;;;;3.35;0.20;;;;;;;;;;5052512;28;20103;-53
2022/08/05 12:45:34;;;;;;;0.38;0.28;;;;;;;;;;5052422;28;20033;-52
2022/08/05 12:48:13;;;;;;;3.63;0.40;;;27.30;47.20;;;;;;5052420;28;20476;-49
2022/08/05 12:50:39;;;;;;;0.40;0.20;;;;;;;;;;5052423;28;20032;-50
2022/08/05 12:53:05;;;;;;;2.35;0.45;;;27.10;78.10;;;;;;5052490;28;20037;-48
2022/08/05 12:55:30;;;;;;;1.15;0.28;;;27.10;65.50;;;;;;5052298;28;20025;-52
2022/08/05 12:57:57;;;;;;;3.42;0.30;;;27.20;47.00;;;;;;5052430;28;20041;-52
2022/08/05 13:00:25;;;;;;;2.08;0.30;;;27.60;81.70;;;;;;5051958;28;20049;-53
2022/08/05 13:02:55;;;;;;;1.60;0.40;;;27.20;47.00;;;;;;5051861;28;20475;-52
2022/08/05 13:05:21;;;;;;;0.98;0.22;;;27.30;45.00;;;;;;5051942;28;20021;-52
2022/08/05 13:07:47;;;;;;;1.38;0.40;;;27.60;81.90;;;;;;5052339;28;20029;-48
2022/08/05 13:10:14;;;;;;;2.00;0.30;;;27.70;81.80;;;;;;5052567;28;20021;-49
2022/08/05 13:12:42;;;;;;;0.95;0.20;;;27.30;46.50;;;;;;5052550;28;20035;-48
2022/08/05 13:15:12;;;;;;;1.05;0.25;;;27.40;81.00;;;;;;5052209;28;20021;-48
2022/08/05 13:17:38;;;;;;;0.75;0.20;;;;;;;;;;5052126;28;20108;-48
2022/08/05 13:20:10;;;;;;;1.90;0.32;;;27.20;45.50;;;;;;5052123;28;20083;-48
2022/08/05 13:22:38;;;;;;;1.83;0.10;;;26.80;79.20;;;;;;5052193;28;20360;-49
2022/08/05 13:25:07;;;;;;;1.48;0.60;;;27.20;45.40;;;;;;5052428;28;20032;-48
2022/08/05 13:27:34;;;;;;;4.10;0.30;;;27.30;45.50;;;;;;5052407;28;20440;-49
2022/08/05 13:30:00;;;;;;;1.00;0.22;;;;;;;;;;5052221;28;20055;-50
2022/08/05 13:32:27;;;;;;;0.70;0.20;;;27.60;80.40;;;;;;5051948;28;20491;-52
2022/08/05 13:34:53;;;;;;;2.55;0.30;;;27.00;79.80;;;;;;5052044;28;20029;-48
2022/08/05 13:37:21;;;;;;;0.38;0.20;;;27.10;79.90;;;;;;5052303;28;20359;-48
2022/08/05 13:39:52;;;;;;;1.13;0.30;;;27.40;50.00;;;;;;5051840;28;20036;-49